sensor_id;sensor_type;location;lat;lon;timestamp;P1;durP1;ratioP1;P2;durP2;ratioP2
14611;SDS011;7392;52.078;11.650;2023-04-01T00:00:13;3.27;;;1.67;;
14611;SDS011;7392;52.078;11.650;2023-04-01T00:02:42;2.23;;;1.00;;
14611;SDS011;7392;52.078;11.650;2023-04-01T00:05:11;2.90;;;1.40;;
14611;SDS011;7392;52.078;11.650;2023-04-01T00:07:39;2.83;;;1.50;;
14611;SDS011;7392;52.078;11.650;2023-04-01T00:10:08;3.27;;;1.33;;
14611;SDS011;7392;52.078;11.650;2023-04-01T00:12:37;2.73;;;1.30;;
14611;SDS011;7392;52.078;11.650;2023-04-01T00:15:07;1.53;;;0.97;;
14611;SDS011;7392;52.078;11.650;2023-04-01T00:17:36;2.23;;;1.30;;
14611;SDS011;7392;52.078;11.650;2023-04-01T00:20:05;2.77;;;1.40;;
14611;SDS011;7392;52.078;11.650;2023-04-01T00:22:35;2.87;;;1.30;;
14611;SDS011;7392;52.078;11.650;2023-04-01T00:25:03;3.27;;;1.17;;
14611;SDS011;7392;52.078;11.650;2023-04-01T00:27:32;1.97;;;1.33;;
14611;SDS011;7392;52.078;11.650;2023-04-01T00:30:00;1.53;;;1.10;;
14611;SDS011;7392;52.078;11.650;2023-04-01T00:32:27;1.40;;;1.20;;
14611;SDS011;7392;52.078;11.650;2023-04-01T00:34:56;3.00;;;1.37;;
14611;SDS011;7392;52.078;11.650;2023-04-01T00:37:25;3.47;;;1.53;;
14611;SDS011;7392;52.078;11.650;2023-04-01T00:39:55;3.17;;;1.33;;
14611;SDS011;7392;52.078;11.650;2023-04-01T00:42:23;3.97;;;1.50;;
14611;SDS011;7392;52.078;11.650;2023-04-01T00:44:52;2.80;;;1.23;;
14611;SDS011;7392;52.078;11.650;2023-04-01T00:47:21;3.27;;;1.50;;
14611;SDS011;7392;52.078;11.650;2023-04-01T00:49:51;3.17;;;1.50;;
14611;SDS011;7392;52.078;11.650;2023-04-01T00:52:22;3.23;;;1.40;;
14611;SDS011;7392;52.078;11.650;2023-04-01T00:54:56;4.00;;;1.40;;
14611;SDS011;7392;52.078;11.650;2023-04-01T00:57:28;3.13;;;1.47;;
14611;SDS011;7392;52.078;11.650;2023-04-01T00:59:59;2.50;;;1.47;;
14611;SDS011;7392;52.078;11.650;2023-04-01T01:02:27;3.33;;;1.60;;
14611;SDS011;7392;52.078;11.650;2023-04-01T01:04:55;4.17;;;1.60;;
14611;SDS011;7392;52.078;11.650;2023-04-01T01:07:25;3.83;;;1.67;;
14611;SDS011;7392;52.078;11.650;2023-04-01T01:10:03;3.83;;;1.50;;
14611;SDS011;7392;52.078;11.650;2023-04-01T01:12:39;6.10;;;1.80;;
14611;SDS011;7392;52.078;11.650;2023-04-01T01:15:13;2.87;;;1.60;;
14611;SDS011;7392;52.078;11.650;2023-04-01T01:17:48;3.30;;;1.30;;
14611;SDS011;7392;52.078;11.650;2023-04-01T01:20:34;1.67;;;1.30;;
14611;SDS011;7392;52.078;11.650;2023-04-01T01:23:36;4.60;;;1.30;;
14611;SDS011;7392;52.078;11.650;2023-04-01T01:26:35;3.07;;;1.50;;
14611;SDS011;7392;52.078;11.650;2023-04-01T01:29:16;2.17;;;1.20;;
14611;SDS011;7392;52.078;11.650;2023-04-01T01:32:15;2.63;;;1.27;;
14611;SDS011;7392;52.078;11.650;2023-04-01T01:35:06;2.20;;;1.30;;
14611;SDS011;7392;52.078;11.650;2023-04-01T01:37:41;3.67;;;1.40;;
14611;SDS011;7392;52.078;11.650;2023-04-01T01:40:12;2.60;;;1.43;;
14611;SDS011;7392;52.078;11.650;2023-04-01T01:42:43;3.17;;;1.57;;
14611;SDS011;7392;52.078;11.650;2023-04-01T01:45:16;2.97;;;1.53;;
14611;SDS011;7392;52.078;11.650;2023-04-01T01:47:48;2.70;;;1.60;;
14611;SDS011;7392;52.078;11.650;2023-04-01T01:50:19;3.80;;;1.50;;
14611;SDS011;7392;52.078;11.650;2023-04-01T01:52:49;3.73;;;1.43;;
14611;SDS011;7392;52.078;11.650;2023-04-01T01:55:27;2.10;;;1.37;;
14611;SDS011;7392;52.078;11.650;2023-04-01T01:57:57;3.30;;;1.33;;
14611;SDS011;7392;52.078;11.650;2023-04-01T02:00:28;2.27;;;1.33;;
14611;SDS011;7392;52.078;11.650;2023-04-01T02:02:58;2.70;;;1.40;;
14611;SDS011;7392;52.078;11.650;2023-04-01T02:05:27;3.27;;;1.60;;
14611;SDS011;7392;52.078;11.650;2023-04-01T02:08:06;2.73;;;1.30;;
14611;SDS011;7392;52.078;11.650;2023-04-01T02:10:39;2.77;;;1.60;;
14611;SDS011;7392;52.078;11.650;2023-04-01T02:13:15;3.57;;;1.73;;
14611;SDS011;7392;52.078;11.650;2023-04-01T02:15:47;3.00;;;1.60;;
14611;SDS011;7392;52.078;11.650;2023-04-01T02:18:18;1.93;;;1.40;;
14611;SDS011;7392;52.078;11.650;2023-04-01T02:20:48;2.57;;;1.40;;
14611;SDS011;7392;52.078;11.650;2023-04-01T02:23:17;3.43;;;1.77;;
14611;SDS011;7392;52.078;11.650;2023-04-01T02:25:45;2.53;;;1.40;;
14611;SDS011;7392;52.078;11.650;2023-04-01T02:28:15;2.53;;;1.40;;
14611;SDS011;7392;52.078;11.650;2023-04-01T02:30:47;3.83;;;1.70;;
14611;SDS011;7392;52.078;11.650;2023-04-01T02:33:17;4.37;;;1.97;;
14611;SDS011;7392;52.078;11.650;2023-04-01T02:35:48;3.20;;;1.50;;
14611;SDS011;7392;52.078;11.650;2023-04-01T02:38:16;4.13;;;1.80;;
14611;SDS011;7392;52.078;11.650;2023-04-01T02:40:45;2.23;;;1.60;;
14611;SDS011;7392;52.078;11.650;2023-04-01T02:43:14;3.23;;;1.80;;
14611;SDS011;7392;52.078;11.650;2023-04-01T02:45:43;2.03;;;1.57;;
14611;SDS011;7392;52.078;11.650;2023-04-01T02:48:11;2.40;;;1.63;;
14611;SDS011;7392;52.078;11.650;2023-04-01T02:50:40;2.23;;;1.57;;
14611;SDS011;7392;52.078;11.650;2023-04-01T02:53:09;2.27;;;1.23;;
14611;SDS011;7392;52.078;11.650;2023-04-01T02:55:37;1.77;;;1.50;;
14611;SDS011;7392;52.078;11.650;2023-04-01T02:58:05;3.50;;;1.60;;
14611;SDS011;7392;52.078;11.650;2023-04-01T03:00:33;1.83;;;1.20;;
14611;SDS011;7392;52.078;11.650;2023-04-01T03:03:01;1.87;;;1.40;;
14611;SDS011;7392;52.078;11.650;2023-04-01T03:05:29;1.43;;;1.10;;
14611;SDS011;7392;52.078;11.650;2023-04-01T03:07:57;2.33;;;1.40;;
14611;SDS011;7392;52.078;11.650;2023-04-01T03:10:26;3.07;;;1.40;;
14611;SDS011;7392;52.078;11.650;2023-04-01T03:12:54;1.97;;;1.37;;
14611;SDS011;7392;52.078;11.650;2023-04-01T03:15:21;3.17;;;1.70;;
14611;SDS011;7392;52.078;11.650;2023-04-01T03:17:49;2.33;;;1.40;;
14611;SDS011;7392;52.078;11.650;2023-04-01T03:20:17;2.97;;;1.77;;
14611;SDS011;7392;52.078;11.650;2023-04-01T03:22:45;5.60;;;1.90;;
14611;SDS011;7392;52.078;11.650;2023-04-01T03:25:13;2.47;;;1.63;;
14611;SDS011;7392;52.078;11.650;2023-04-01T03:27:43;2.53;;;1.40;;
14611;SDS011;7392;52.078;11.650;2023-04-01T03:30:11;1.87;;;1.40;;
14611;SDS011;7392;52.078;11.650;2023-04-01T03:32:47;3.40;;;1.50;;
14611;SDS011;7392;52.078;11.650;2023-04-01T03:35:15;2.20;;;1.50;;
14611;SDS011;7392;52.078;11.650;2023-04-01T03:37:44;3.27;;;1.70;;
14611;SDS011;7392;52.078;11.650;2023-04-01T03:40:12;3.43;;;1.37;;
14611;SDS011;7392;52.078;11.650;2023-04-01T03:42:39;1.93;;;1.50;;
14611;SDS011;7392;52.078;11.650;2023-04-01T03:45:09;3.43;;;1.50;;
14611;SDS011;7392;52.078;11.650;2023-04-01T03:47:38;2.47;;;1.50;;
14611;SDS011;7392;52.078;11.650;2023-04-01T03:50:06;2.30;;;1.47;;
14611;SDS011;7392;52.078;11.650;2023-04-01T03:52:35;1.87;;;1.30;;
14611;SDS011;7392;52.078;11.650;2023-04-01T03:55:03;3.10;;;1.30;;
14611;SDS011;7392;52.078;11.650;2023-04-01T03:57:31;2.00;;;1.30;;
14611;SDS011;7392;52.078;11.650;2023-04-01T04:00:13;2.23;;;1.20;;
14611;SDS011;7392;52.078;11.650;2023-04-01T04:02:44;2.33;;;1.53;;
14611;SDS011;7392;52.078;11.650;2023-04-01T04:05:17;1.40;;;1.30;;
14611;SDS011;7392;52.078;11.650;2023-04-01T04:07:45;2.77;;;1.30;;
14611;SDS011;7392;52.078;11.650;2023-04-01T04:10:13;2.50;;;1.30;;
14611;SDS011;7392;52.078;11.650;2023-04-01T04:12:40;1.30;;;1.20;;
14611;SDS011;7392;52.078;11.650;2023-04-01T04:15:09;1.50;;;1.10;;
14611;SDS011;7392;52.078;11.650;2023-04-01T04:17:39;1.77;;;1.30;;
14611;SDS011;7392;52.078;11.650;2023-04-01T04:20:08;1.60;;;1.30;;
14611;SDS011;7392;52.078;11.650;2023-04-01T04:22:36;2.30;;;1.63;;
14611;SDS011;7392;52.078;11.650;2023-04-01T04:25:06;1.47;;;1.20;;
14611;SDS011;7392;52.078;11.650;2023-04-01T04:27:35;1.67;;;1.20;;
14611;SDS011;7392;52.078;11.650;2023-04-01T04:30:08;3.80;;;1.63;;
14611;SDS011;7392;52.078;11.650;2023-04-01T04:32:36;2.50;;;1.67;;
14611;SDS011;7392;52.078;11.650;2023-04-01T04:35:06;3.37;;;1.57;;
14611;SDS011;7392;52.078;11.650;2023-04-01T04:37:34;2.37;;;1.83;;
14611;SDS011;7392;52.078;11.650;2023-04-01T04:40:02;1.93;;;1.20;;
14611;SDS011;7392;52.078;11.650;2023-04-01T04:42:30;2.00;;;1.40;;
14611;SDS011;7392;52.078;11.650;2023-04-01T04:45:07;3.63;;;1.67;;
14611;SDS011;7392;52.078;11.650;2023-04-01T04:47:40;5.43;;;1.60;;
14611;SDS011;7392;52.078;11.650;2023-04-01T04:50:09;2.53;;;1.30;;
14611;SDS011;7392;52.078;11.650;2023-04-01T04:52:39;1.90;;;1.37;;
14611;SDS011;7392;52.078;11.650;2023-04-01T04:55:07;1.83;;;1.40;;
14611;SDS011;7392;52.078;11.650;2023-04-01T04:57:35;1.87;;;1.30;;
14611;SDS011;7392;52.078;11.650;2023-04-01T05:00:04;2.07;;;1.63;;
14611;SDS011;7392;52.078;11.650;2023-04-01T05:02:51;2.37;;;1.50;;
14611;SDS011;7392;52.078;11.650;2023-04-01T05:05:20;2.43;;;1.40;;
14611;SDS011;7392;52.078;11.650;2023-04-01T05:07:47;2.67;;;1.50;;
14611;SDS011;7392;52.078;11.650;2023-04-01T05:10:15;3.10;;;1.70;;
14611;SDS011;7392;52.078;11.650;2023-04-01T05:12:43;1.63;;;1.33;;
14611;SDS011;7392;52.078;11.650;2023-04-01T05:15:16;2.03;;;1.77;;
14611;SDS011;7392;52.078;11.650;2023-04-01T05:17:43;2.67;;;1.60;;
14611;SDS011;7392;52.078;11.650;2023-04-01T05:20:11;2.80;;;1.60;;
14611;SDS011;7392;52.078;11.650;2023-04-01T05:22:41;2.13;;;1.50;;
14611;SDS011;7392;52.078;11.650;2023-04-01T05:25:09;2.27;;;1.40;;
14611;SDS011;7392;52.078;11.650;2023-04-01T05:27:37;2.83;;;1.67;;
14611;SDS011;7392;52.078;11.650;2023-04-01T05:30:06;3.43;;;1.80;;
14611;SDS011;7392;52.078;11.650;2023-04-01T05:32:42;2.70;;;1.67;;
14611;SDS011;7392;52.078;11.650;2023-04-01T05:35:11;2.90;;;1.87;;
14611;SDS011;7392;52.078;11.650;2023-04-01T05:37:38;2.83;;;1.60;;
14611;SDS011;7392;52.078;11.650;2023-04-01T05:40:08;2.90;;;1.67;;
14611;SDS011;7392;52.078;11.650;2023-04-01T05:42:37;1.93;;;1.53;;
14611;SDS011;7392;52.078;11.650;2023-04-01T05:47:42;2.33;;;1.73;;
14611;SDS011;7392;52.078;11.650;2023-04-01T05:50:10;3.43;;;1.67;;
14611;SDS011;7392;52.078;11.650;2023-04-01T05:52:39;2.53;;;1.70;;
14611;SDS011;7392;52.078;11.650;2023-04-01T05:55:07;4.17;;;1.77;;
14611;SDS011;7392;52.078;11.650;2023-04-01T05:57:36;2.90;;;1.70;;
14611;SDS011;7392;52.078;11.650;2023-04-01T06:00:05;2.93;;;1.70;;
14611;SDS011;7392;52.078;11.650;2023-04-01T06:02:37;2.50;;;1.60;;
14611;SDS011;7392;52.078;11.650;2023-04-01T06:05:13;2.80;;;1.40;;
14611;SDS011;7392;52.078;11.650;2023-04-01T06:07:44;2.70;;;1.50;;
14611;SDS011;7392;52.078;11.650;2023-04-01T06:10:14;5.17;;;2.17;;
14611;SDS011;7392;52.078;11.650;2023-04-01T06:12:46;3.57;;;2.40;;
14611;SDS011;7392;52.078;11.650;2023-04-01T06:15:23;2.63;;;1.90;;
14611;SDS011;7392;52.078;11.650;2023-04-01T06:18:01;2.63;;;1.97;;
14611;SDS011;7392;52.078;11.650;2023-04-01T06:20:44;3.00;;;1.90;;
14611;SDS011;7392;52.078;11.650;2023-04-01T06:23:24;2.13;;;1.63;;
14611;SDS011;7392;52.078;11.650;2023-04-01T06:26:07;2.93;;;1.70;;
14611;SDS011;7392;52.078;11.650;2023-04-01T06:28:48;3.07;;;1.80;;
14611;SDS011;7392;52.078;11.650;2023-04-01T06:31:38;2.20;;;1.70;;
14611;SDS011;7392;52.078;11.650;2023-04-01T06:34:23;3.93;;;1.60;;
14611;SDS011;7392;52.078;11.650;2023-04-01T06:37:18;4.67;;;1.83;;
14611;SDS011;7392;52.078;11.650;2023-04-01T06:40:03;2.90;;;1.50;;
14611;SDS011;7392;52.078;11.650;2023-04-01T06:42:54;4.97;;;1.80;;
14611;SDS011;7392;52.078;11.650;2023-04-01T06:45:55;4.80;;;1.93;;
14611;SDS011;7392;52.078;11.650;2023-04-01T06:48:54;2.30;;;1.50;;
14611;SDS011;7392;52.078;11.650;2023-04-01T06:51:43;3.10;;;1.50;;
14611;SDS011;7392;52.078;11.650;2023-04-01T06:54:40;3.30;;;1.53;;
14611;SDS011;7392;52.078;11.650;2023-04-01T06:57:32;2.70;;;1.87;;
14611;SDS011;7392;52.078;11.650;2023-04-01T07:00:11;5.57;;;2.20;;
14611;SDS011;7392;52.078;11.650;2023-04-01T07:02:43;4.03;;;2.50;;
14611;SDS011;7392;52.078;11.650;2023-04-01T07:05:21;3.13;;;1.90;;
14611;SDS011;7392;52.078;11.650;2023-04-01T07:07:52;3.53;;;1.80;;
14611;SDS011;7392;52.078;11.650;2023-04-01T07:10:28;4.23;;;1.90;;
14611;SDS011;7392;52.078;11.650;2023-04-01T07:13:22;4.00;;;2.00;;
14611;SDS011;7392;52.078;11.650;2023-04-01T07:15:59;4.47;;;2.07;;
14611;SDS011;7392;52.078;11.650;2023-04-01T07:18:39;2.40;;;1.60;;
14611;SDS011;7392;52.078;11.650;2023-04-01T07:21:15;2.20;;;1.67;;
14611;SDS011;7392;52.078;11.650;2023-04-01T07:23:54;3.57;;;1.93;;
14611;SDS011;7392;52.078;11.650;2023-04-01T07:26:35;2.53;;;1.60;;
14611;SDS011;7392;52.078;11.650;2023-04-01T07:29:13;2.80;;;1.70;;
14611;SDS011;7392;52.078;11.650;2023-04-01T07:32:07;5.27;;;2.17;;
14611;SDS011;7392;52.078;11.650;2023-04-01T07:34:46;3.57;;;1.90;;
14611;SDS011;7392;52.078;11.650;2023-04-01T07:37:25;3.97;;;1.80;;
14611;SDS011;7392;52.078;11.650;2023-04-01T07:40:02;4.63;;;2.00;;
14611;SDS011;7392;52.078;11.650;2023-04-01T07:42:47;3.80;;;2.17;;
14611;SDS011;7392;52.078;11.650;2023-04-01T07:45:29;5.03;;;1.80;;
14611;SDS011;7392;52.078;11.650;2023-04-01T07:48:11;4.20;;;2.07;;
14611;SDS011;7392;52.078;11.650;2023-04-01T07:50:50;4.37;;;1.87;;
14611;SDS011;7392;52.078;11.650;2023-04-01T07:53:28;4.83;;;2.00;;
14611;SDS011;7392;52.078;11.650;2023-04-01T07:56:05;3.60;;;2.30;;
14611;SDS011;7392;52.078;11.650;2023-04-01T07:58:46;3.43;;;1.80;;
14611;SDS011;7392;52.078;11.650;2023-04-01T08:01:51;4.03;;;1.90;;
14611;SDS011;7392;52.078;11.650;2023-04-01T08:04:29;3.63;;;1.83;;
14611;SDS011;7392;52.078;11.650;2023-04-01T08:07:10;4.10;;;2.07;;
14611;SDS011;7392;52.078;11.650;2023-04-01T08:10:00;3.80;;;2.37;;
14611;SDS011;7392;52.078;11.650;2023-04-01T08:12:55;3.60;;;2.40;;
14611;SDS011;7392;52.078;11.650;2023-04-01T08:16:15;4.73;;;2.10;;
14611;SDS011;7392;52.078;11.650;2023-04-01T08:18:53;3.10;;;1.73;;
14611;SDS011;7392;52.078;11.650;2023-04-01T08:21:28;3.63;;;1.70;;
14611;SDS011;7392;52.078;11.650;2023-04-01T08:24:04;3.47;;;1.67;;
14611;SDS011;7392;52.078;11.650;2023-04-01T08:26:39;4.40;;;2.20;;
14611;SDS011;7392;52.078;11.650;2023-04-01T08:29:13;3.63;;;1.77;;
14611;SDS011;7392;52.078;11.650;2023-04-01T08:31:49;4.17;;;2.13;;
14611;SDS011;7392;52.078;11.650;2023-04-01T08:34:23;3.27;;;1.93;;
14611;SDS011;7392;52.078;11.650;2023-04-01T08:36:57;2.90;;;2.00;;
14611;SDS011;7392;52.078;11.650;2023-04-01T08:39:31;2.00;;;1.50;;
14611;SDS011;7392;52.078;11.650;2023-04-01T08:42:10;3.10;;;1.80;;
14611;SDS011;7392;52.078;11.650;2023-04-01T08:44:55;2.10;;;1.30;;
14611;SDS011;7392;52.078;11.650;2023-04-01T08:48:08;1.43;;;0.90;;
14611;SDS011;7392;52.078;11.650;2023-04-01T08:50:56;1.93;;;1.10;;
14611;SDS011;7392;52.078;11.650;2023-04-01T08:53:46;2.30;;;1.10;;
14611;SDS011;7392;52.078;11.650;2023-04-01T08:56:34;1.80;;;0.97;;
14611;SDS011;7392;52.078;11.650;2023-04-01T08:59:16;3.10;;;1.10;;
14611;SDS011;7392;52.078;11.650;2023-04-01T09:02:15;1.30;;;0.80;;
14611;SDS011;7392;52.078;11.650;2023-04-01T09:05:12;1.80;;;0.90;;
14611;SDS011;7392;52.078;11.650;2023-04-01T09:07:56;3.67;;;1.43;;
14611;SDS011;7392;52.078;11.650;2023-04-01T09:10:36;2.67;;;1.53;;
14611;SDS011;7392;52.078;11.650;2023-04-01T09:13:49;2.63;;;1.27;;
14611;SDS011;7392;52.078;11.650;2023-04-01T09:17:00;2.67;;;1.60;;
14611;SDS011;7392;52.078;11.650;2023-04-01T09:19:55;4.37;;;1.70;;
14611;SDS011;7392;52.078;11.650;2023-04-01T09:22:50;2.33;;;1.63;;
14611;SDS011;7392;52.078;11.650;2023-04-01T09:25:45;2.20;;;1.20;;
14611;SDS011;7392;52.078;11.650;2023-04-01T09:28:24;2.17;;;1.20;;
14611;SDS011;7392;52.078;11.650;2023-04-01T09:34:41;2.10;;;1.30;;
14611;SDS011;7392;52.078;11.650;2023-04-01T09:37:27;3.20;;;1.30;;
14611;SDS011;7392;52.078;11.650;2023-04-01T09:40:16;3.63;;;1.40;;
14611;SDS011;7392;52.078;11.650;2023-04-01T09:45:57;3.77;;;1.30;;
14611;SDS011;7392;52.078;11.650;2023-04-01T09:48:41;2.83;;;1.60;;
14611;SDS011;7392;52.078;11.650;2023-04-01T09:51:31;1.87;;;1.20;;
14611;SDS011;7392;52.078;11.650;2023-04-01T09:54:11;3.30;;;1.70;;
14611;SDS011;7392;52.078;11.650;2023-04-01T10:00:06;4.03;;;1.50;;
14611;SDS011;7392;52.078;11.650;2023-04-01T10:03:05;2.40;;;1.30;;
14611;SDS011;7392;52.078;11.650;2023-04-01T10:06:09;2.20;;;1.10;;
14611;SDS011;7392;52.078;11.650;2023-04-01T10:21:37;3.60;;;1.20;;
14611;SDS011;7392;52.078;11.650;2023-04-01T10:24:39;1.57;;;1.07;;
14611;SDS011;7392;52.078;11.650;2023-04-01T10:27:42;1.27;;;0.70;;
14611;SDS011;7392;52.078;11.650;2023-04-01T10:30:41;2.87;;;1.00;;
14611;SDS011;7392;52.078;11.650;2023-04-01T10:36:52;2.67;;;1.40;;
14611;SDS011;7392;52.078;11.650;2023-04-01T10:39:37;2.60;;;1.10;;
14611;SDS011;7392;52.078;11.650;2023-04-01T10:49:30;2.43;;;1.10;;
14611;SDS011;7392;52.078;11.650;2023-04-01T10:52:15;2.73;;;1.13;;
14611;SDS011;7392;52.078;11.650;2023-04-01T10:55:27;1.60;;;1.00;;
14611;SDS011;7392;52.078;11.650;2023-04-01T10:58:29;2.17;;;1.30;;
14611;SDS011;7392;52.078;11.650;2023-04-01T11:01:40;2.43;;;1.10;;
14611;SDS011;7392;52.078;11.650;2023-04-01T11:05:12;2.10;;;1.10;;
14611;SDS011;7392;52.078;11.650;2023-04-01T11:08:19;2.37;;;1.20;;
14611;SDS011;7392;52.078;11.650;2023-04-01T11:11:11;1.37;;;1.00;;
14611;SDS011;7392;52.078;11.650;2023-04-01T11:17:08;2.27;;;1.00;;
14611;SDS011;7392;52.078;11.650;2023-04-01T11:22:53;1.93;;;1.03;;
14611;SDS011;7392;52.078;11.650;2023-04-01T11:25:50;4.73;;;1.37;;
14611;SDS011;7392;52.078;11.650;2023-04-01T11:28:52;3.80;;;1.00;;
14611;SDS011;7392;52.078;11.650;2023-04-01T11:31:45;2.97;;;1.30;;
14611;SDS011;7392;52.078;11.650;2023-04-01T11:34:47;3.90;;;1.50;;
14611;SDS011;7392;52.078;11.650;2023-04-01T11:37:29;3.77;;;1.33;;
14611;SDS011;7392;52.078;11.650;2023-04-01T11:40:33;2.40;;;1.20;;
14611;SDS011;7392;52.078;11.650;2023-04-01T11:43:37;2.77;;;1.37;;
14611;SDS011;7392;52.078;11.650;2023-04-01T11:46:30;3.80;;;1.00;;
14611;SDS011;7392;52.078;11.650;2023-04-01T11:49:07;2.17;;;0.83;;
14611;SDS011;7392;52.078;11.650;2023-04-01T11:55:19;0.90;;;0.60;;
14611;SDS011;7392;52.078;11.650;2023-04-01T11:58:10;1.63;;;1.50;;
14611;SDS011;7392;52.078;11.650;2023-04-01T12:00:52;1.60;;;0.90;;
14611;SDS011;7392;52.078;11.650;2023-04-01T12:06:41;0.90;;;0.60;;
14611;SDS011;7392;52.078;11.650;2023-04-01T12:09:18;1.30;;;0.63;;
14611;SDS011;7392;52.078;11.650;2023-04-01T12:11:53;1.20;;;0.50;;
14611;SDS011;7392;52.078;11.650;2023-04-01T12:14:41;0.83;;;0.50;;
14611;SDS011;7392;52.078;11.650;2023-04-01T12:17:21;1.73;;;0.63;;
14611;SDS011;7392;52.078;11.650;2023-04-01T12:19:57;1.67;;;0.30;;
14611;SDS011;7392;52.078;11.650;2023-04-01T12:22:35;0.67;;;0.33;;
14611;SDS011;7392;52.078;11.650;2023-04-01T12:25:17;0.33;;;0.30;;
14611;SDS011;7392;52.078;11.650;2023-04-01T12:28:04;0.77;;;0.43;;
14611;SDS011;7392;52.078;11.650;2023-04-01T12:30:46;0.43;;;0.37;;
14611;SDS011;7392;52.078;11.650;2023-04-01T12:33:33;0.90;;;0.57;;
14611;SDS011;7392;52.078;11.650;2023-04-01T12:36:13;0.40;;;0.40;;
14611;SDS011;7392;52.078;11.650;2023-04-01T12:38:54;0.40;;;0.30;;
14611;SDS011;7392;52.078;11.650;2023-04-01T12:41:39;0.50;;;0.40;;
14611;SDS011;7392;52.078;11.650;2023-04-01T12:44:19;0.40;;;0.40;;
14611;SDS011;7392;52.078;11.650;2023-04-01T12:47:04;0.70;;;0.60;;
14611;SDS011;7392;52.078;11.650;2023-04-01T12:49:47;0.60;;;0.60;;
14611;SDS011;7392;52.078;11.650;2023-04-01T12:52:34;1.00;;;0.70;;
14611;SDS011;7392;52.078;11.650;2023-04-01T12:58:11;0.77;;;0.57;;
14611;SDS011;7392;52.078;11.650;2023-04-01T13:00:54;1.63;;;0.70;;
14611;SDS011;7392;52.078;11.650;2023-04-01T13:03:36;0.90;;;0.60;;
14611;SDS011;7392;52.078;11.650;2023-04-01T13:09:13;0.70;;;0.60;;
14611;SDS011;7392;52.078;11.650;2023-04-01T13:11:56;0.60;;;0.60;;
14611;SDS011;7392;52.078;11.650;2023-04-01T13:14:54;0.70;;;0.60;;
14611;SDS011;7392;52.078;11.650;2023-04-01T13:17:35;1.27;;;0.90;;
14611;SDS011;7392;52.078;11.650;2023-04-01T13:20:14;1.13;;;0.80;;
14611;SDS011;7392;52.078;11.650;2023-04-01T13:22:51;1.80;;;0.70;;
14611;SDS011;7392;52.078;11.650;2023-04-01T13:25:30;0.90;;;0.70;;
14611;SDS011;7392;52.078;11.650;2023-04-01T13:28:06;1.10;;;0.70;;
14611;SDS011;7392;52.078;11.650;2023-04-01T13:30:42;1.57;;;0.70;;
14611;SDS011;7392;52.078;11.650;2023-04-01T13:33:15;1.30;;;0.80;;
14611;SDS011;7392;52.078;11.650;2023-04-01T13:35:52;0.80;;;0.70;;
14611;SDS011;7392;52.078;11.650;2023-04-01T13:41:27;1.97;;;1.00;;
14611;SDS011;7392;52.078;11.650;2023-04-01T13:44:07;2.00;;;0.90;;
14611;SDS011;7392;52.078;11.650;2023-04-01T13:46:51;1.10;;;0.50;;
14611;SDS011;7392;52.078;11.650;2023-04-01T13:49:36;0.97;;;0.80;;
14611;SDS011;7392;52.078;11.650;2023-04-01T13:52:18;2.13;;;0.90;;
14611;SDS011;7392;52.078;11.650;2023-04-01T13:54:59;2.73;;;1.23;;
14611;SDS011;7392;52.078;11.650;2023-04-01T13:57:43;1.20;;;0.80;;
14611;SDS011;7392;52.078;11.650;2023-04-01T14:00:27;0.97;;;0.60;;
14611;SDS011;7392;52.078;11.650;2023-04-01T14:03:09;0.50;;;0.50;;
14611;SDS011;7392;52.078;11.650;2023-04-01T14:06:12;1.57;;;0.93;;
14611;SDS011;7392;52.078;11.650;2023-04-01T14:08:51;0.97;;;0.90;;
14611;SDS011;7392;52.078;11.650;2023-04-01T14:11:32;1.50;;;0.63;;
14611;SDS011;7392;52.078;11.650;2023-04-01T14:14:06;1.10;;;0.77;;
14611;SDS011;7392;52.078;11.650;2023-04-01T14:17:01;0.77;;;0.50;;
14611;SDS011;7392;52.078;11.650;2023-04-01T14:19:45;0.50;;;0.40;;
14611;SDS011;7392;52.078;11.650;2023-04-01T14:22:30;0.60;;;0.47;;
14611;SDS011;7392;52.078;11.650;2023-04-01T14:25:13;1.03;;;0.70;;
14611;SDS011;7392;52.078;11.650;2023-04-01T14:28:04;0.90;;;0.80;;
14611;SDS011;7392;52.078;11.650;2023-04-01T14:30:45;1.00;;;0.90;;
14611;SDS011;7392;52.078;11.650;2023-04-01T14:33:28;1.67;;;1.40;;
14611;SDS011;7392;52.078;11.650;2023-04-01T14:36:21;2.43;;;1.60;;
14611;SDS011;7392;52.078;11.650;2023-04-01T14:39:00;1.60;;;1.50;;
14611;SDS011;7392;52.078;11.650;2023-04-01T14:41:57;1.73;;;1.63;;
14611;SDS011;7392;52.078;11.650;2023-04-01T14:44:53;2.17;;;2.00;;
14611;SDS011;7392;52.078;11.650;2023-04-01T14:47:48;2.30;;;2.10;;
14611;SDS011;7392;52.078;11.650;2023-04-01T14:50:20;2.53;;;2.33;;
14611;SDS011;7392;52.078;11.650;2023-04-01T14:52:55;2.47;;;2.17;;
14611;SDS011;7392;52.078;11.650;2023-04-01T14:55:31;2.90;;;2.70;;
14611;SDS011;7392;52.078;11.650;2023-04-01T14:58:10;3.07;;;2.87;;
14611;SDS011;7392;52.078;11.650;2023-04-01T15:00:49;2.20;;;2.10;;
14611;SDS011;7392;52.078;11.650;2023-04-01T15:03:26;2.17;;;2.07;;
14611;SDS011;7392;52.078;11.650;2023-04-01T15:06:02;2.30;;;2.07;;
14611;SDS011;7392;52.078;11.650;2023-04-01T15:08:50;2.60;;;2.40;;
14611;SDS011;7392;52.078;11.650;2023-04-01T15:11:23;2.90;;;2.70;;
14611;SDS011;7392;52.078;11.650;2023-04-01T15:14:14;2.77;;;2.57;;
14611;SDS011;7392;52.078;11.650;2023-04-01T15:17:05;2.90;;;2.70;;
14611;SDS011;7392;52.078;11.650;2023-04-01T15:19:54;2.80;;;2.60;;
14611;SDS011;7392;52.078;11.650;2023-04-01T15:22:43;2.87;;;2.67;;
14611;SDS011;7392;52.078;11.650;2023-04-01T15:25:30;3.47;;;3.10;;
14611;SDS011;7392;52.078;11.650;2023-04-01T15:28:10;3.43;;;3.13;;
14611;SDS011;7392;52.078;11.650;2023-04-01T15:30:50;3.43;;;3.20;;
14611;SDS011;7392;52.078;11.650;2023-04-01T15:33:30;3.50;;;3.20;;
14611;SDS011;7392;52.078;11.650;2023-04-01T15:36:27;3.53;;;3.23;;
14611;SDS011;7392;52.078;11.650;2023-04-01T15:39:03;3.50;;;3.30;;
14611;SDS011;7392;52.078;11.650;2023-04-01T15:41:40;4.13;;;3.30;;
14611;SDS011;7392;52.078;11.650;2023-04-01T15:44:35;3.57;;;3.33;;
14611;SDS011;7392;52.078;11.650;2023-04-01T15:47:24;3.33;;;3.03;;
14611;SDS011;7392;52.078;11.650;2023-04-01T15:53:08;3.30;;;3.10;;
14611;SDS011;7392;52.078;11.650;2023-04-01T15:55:46;3.27;;;3.00;;
14611;SDS011;7392;52.078;11.650;2023-04-01T15:58:26;3.30;;;3.00;;
14611;SDS011;7392;52.078;11.650;2023-04-01T16:01:13;3.57;;;3.20;;
14611;SDS011;7392;52.078;11.650;2023-04-01T16:03:52;3.00;;;2.80;;
14611;SDS011;7392;52.078;11.650;2023-04-01T16:06:39;3.30;;;3.10;;
14611;SDS011;7392;52.078;11.650;2023-04-01T16:12:24;3.63;;;3.33;;
14611;SDS011;7392;52.078;11.650;2023-04-01T16:15:09;4.10;;;3.73;;
14611;SDS011;7392;52.078;11.650;2023-04-01T16:17:53;5.07;;;3.90;;
14611;SDS011;7392;52.078;11.650;2023-04-01T16:20:39;3.53;;;3.23;;
14611;SDS011;7392;52.078;11.650;2023-04-01T16:23:16;3.53;;;3.23;;
14611;SDS011;7392;52.078;11.650;2023-04-01T16:25:51;3.50;;;3.20;;
14611;SDS011;7392;52.078;11.650;2023-04-01T16:28:29;2.63;;;2.43;;
14611;SDS011;7392;52.078;11.650;2023-04-01T16:31:03;2.90;;;2.70;;
14611;SDS011;7392;52.078;11.650;2023-04-01T16:33:37;2.70;;;2.50;;
14611;SDS011;7392;52.078;11.650;2023-04-01T16:36:17;2.43;;;2.23;;
14611;SDS011;7392;52.078;11.650;2023-04-01T16:38:53;2.53;;;2.17;;
14611;SDS011;7392;52.078;11.650;2023-04-01T16:41:29;2.13;;;1.93;;
14611;SDS011;7392;52.078;11.650;2023-04-01T16:44:09;2.60;;;2.40;;
14611;SDS011;7392;52.078;11.650;2023-04-01T16:46:44;2.50;;;2.23;;
14611;SDS011;7392;52.078;11.650;2023-04-01T16:49:27;6.77;;;2.50;;
14611;SDS011;7392;52.078;11.650;2023-04-01T16:52:14;3.20;;;2.90;;
14611;SDS011;7392;52.078;11.650;2023-04-01T16:54:46;2.90;;;2.70;;
14611;SDS011;7392;52.078;11.650;2023-04-01T16:57:20;2.20;;;2.00;;
14611;SDS011;7392;52.078;11.650;2023-04-01T16:59:57;2.30;;;2.10;;
14611;SDS011;7392;52.078;11.650;2023-04-01T17:02:31;2.33;;;2.17;;